sensor_id;sensor_type;location;lat;lon;timestamp;pressure;altitude;pressure_sealevel;temperature;humidity
74913;BME280;63878;55.624;37.304;2023-11-22T00:09:09;98956.72;;;-10.25;64.69
74913;BME280;63878;55.624;37.304;2023-11-22T00:19:09;98950.88;;;-10.09;64.99
74913;BME280;63878;55.624;37.304;2023-11-22T00:29:10;98952.50;;;-10.23;65.10
74913;BME280;63878;55.624;37.304;2023-11-22T00:39:10;98946.56;;;-10.25;65.55
74913;BME280;63878;55.624;37.304;2023-11-22T00:49:10;98950.88;;;-10.03;65.16
74913;BME280;63878;55.624;37.304;2023-11-22T00:59:11;98950.00;;;-10.12;65.39
74913;BME280;63878;55.624;37.304;2023-11-22T01:09:11;98938.22;;;-9.92;65.10
74913;BME280;63878;55.624;37.304;2023-11-22T01:19:12;98934.84;;;-9.76;64.90
74913;BME280;63878;55.624;37.304;2023-11-22T01:29:12;98926.44;;;-9.58;64.82
74913;BME280;63878;55.624;37.304;2023-11-22T01:39:13;98930.63;;;-9.69;64.68
74913;BME280;63878;55.624;37.304;2023-11-22T01:49:14;98929.81;;;-9.65;66.27
74913;BME280;63878;55.624;37.304;2023-11-22T01:59:14;98921.31;;;-9.76;66.87
74913;BME280;63878;55.624;37.304;2023-11-22T02:09:14;98936.50;;;-9.98;66.85
74913;BME280;63878;55.624;37.304;2023-11-22T02:19:16;98938.28;;;-9.74;65.81
74913;BME280;63878;55.624;37.304;2023-11-22T02:29:17;98938.28;;;-9.64;64.68
74913;BME280;63878;55.624;37.304;2023-11-22T02:39:17;98926.41;;;-9.70;65.86
74913;BME280;63878;55.624;37.304;2023-11-22T02:49:18;98945.81;;;-10.09;66.59
74913;BME280;63878;55.624;37.304;2023-11-22T02:59:18;98943.28;;;-10.01;65.79
74913;BME280;63878;55.624;37.304;2023-11-22T03:09:19;98951.69;;;-10.16;65.84
74913;BME280;63878;55.624;37.304;2023-11-22T03:19:19;98960.19;;;-10.03;66.28
74913;BME280;63878;55.624;37.304;2023-11-22T03:29:20;98948.41;;;-9.84;65.06
74913;BME280;63878;55.624;37.304;2023-11-22T03:39:20;98939.91;;;-9.94;64.58
74913;BME280;63878;55.624;37.304;2023-11-22T03:49:21;98951.88;;;-9.47;63.92
74913;BME280;63878;55.624;37.304;2023-11-22T03:59:21;98952.66;;;-9.88;64.44
74913;BME280;63878;55.624;37.304;2023-11-22T04:09:22;98939.13;;;-9.70;64.18
74913;BME280;63878;55.624;37.304;2023-11-22T04:19:22;98962.75;;;-10.02;65.01
74913;BME280;63878;55.624;37.304;2023-11-22T04:29:23;98955.97;;;-9.98;64.26
74913;BME280;63878;55.624;37.304;2023-11-22T04:39:23;98971.19;;;-10.13;64.06
74913;BME280;63878;55.624;37.304;2023-11-22T04:49:24;98960.31;;;-9.68;63.56
74913;BME280;63878;55.624;37.304;2023-11-22T04:59:24;98964.50;;;-9.85;65.25
74913;BME280;63878;55.624;37.304;2023-11-22T05:09:25;98973.78;;;-9.92;64.61
74913;BME280;63878;55.624;37.304;2023-11-22T05:19:25;98979.84;;;-9.36;63.67
74913;BME280;63878;55.624;37.304;2023-11-22T05:29:25;98985.69;;;-9.88;64.75
74913;BME280;63878;55.624;37.304;2023-11-22T05:39:26;98986.50;;;-9.93;64.12
74913;BME280;63878;55.624;37.304;2023-11-22T05:49:26;98990.81;;;-9.65;63.78
74913;BME280;63878;55.624;37.304;2023-11-22T05:59:27;98991.56;;;-9.98;63.11
74913;BME280;63878;55.624;37.304;2023-11-22T06:09:27;99002.66;;;-9.73;64.19
74913;BME280;63878;55.624;37.304;2023-11-22T06:19:28;99010.22;;;-9.94;63.33
74913;BME280;63878;55.624;37.304;2023-11-22T06:29:28;99000.75;;;-10.25;65.29
74913;BME280;63878;55.624;37.304;2023-11-22T06:39:28;99005.16;;;-9.85;63.99
74913;BME280;63878;55.624;37.304;2023-11-22T06:49:29;99003.44;;;-9.92;63.85
74913;BME280;63878;55.624;37.304;2023-11-22T06:59:29;99017.63;;;-10.30;62.35
74913;BME280;63878;55.624;37.304;2023-11-22T07:09:30;99036.50;;;-9.83;62.94
74913;BME280;63878;55.624;37.304;2023-11-22T07:19:31;99041.25;;;-10.54;63.74
74913;BME280;63878;55.624;37.304;2023-11-22T07:29:31;99041.53;;;-9.97;61.91
74913;BME280;63878;55.624;37.304;2023-11-22T07:39:32;99054.22;;;-10.02;62.97
74913;BME280;63878;55.624;37.304;2023-11-22T07:49:33;99050.88;;;-9.94;61.96
74913;BME280;63878;55.624;37.304;2023-11-22T07:59:34;99057.66;;;-9.84;59.37
74913;BME280;63878;55.624;37.304;2023-11-22T08:09:34;99043.31;;;-9.72;58.03
74913;BME280;63878;55.624;37.304;2023-11-22T08:19:35;99049.25;;;-9.71;58.17
74913;BME280;63878;55.624;37.304;2023-11-22T08:29:35;99041.59;;;-9.80;57.81
74913;BME280;63878;55.624;37.304;2023-11-22T08:39:35;99043.38;;;-9.52;56.02
74913;BME280;63878;55.624;37.304;2023-11-22T08:49:36;99057.06;;;-9.04;55.81
74913;BME280;63878;55.624;37.304;2023-11-22T08:59:37;99050.97;;;-9.69;56.29
74913;BME280;63878;55.624;37.304;2023-11-22T09:09:38;99034.13;;;-9.24;57.68
74913;BME280;63878;55.624;37.304;2023-11-22T09:19:39;99036.59;;;-8.00;56.85
74913;BME280;63878;55.624;37.304;2023-11-22T09:29:39;99026.84;;;-7.25;58.08
74913;BME280;63878;55.624;37.304;2023-11-22T09:39:40;99020.13;;;-7.33;56.75
74913;BME280;63878;55.624;37.304;2023-11-22T09:49:41;99031.03;;;-7.13;53.27
74913;BME280;63878;55.624;37.304;2023-11-22T09:59:43;99041.75;;;-8.24;54.54
74913;BME280;63878;55.624;37.304;2023-11-22T10:09:43;99030.56;;;-7.87;55.86
74913;BME280;63878;55.624;37.304;2023-11-22T10:19:44;99008.91;;;-7.08;57.32
74913;BME280;63878;55.624;37.304;2023-11-22T10:29:44;99033.88;;;-6.41;60.95
74913;BME280;63878;55.624;37.304;2023-11-22T10:39:50;99037.47;;;-8.01;54.55
74913;BME280;63878;55.624;37.304;2023-11-22T10:49:51;99019.59;;;-6.64;58.22
74913;BME280;63878;55.624;37.304;2023-11-22T10:59:54;99022.66;;;-6.29;58.25
74913;BME280;63878;55.624;37.304;2023-11-22T11:09:56;99013.66;;;-6.67;58.53
74913;BME280;63878;55.624;37.304;2023-11-22T11:19:57;99018.34;;;-7.24;55.73
74913;BME280;63878;55.624;37.304;2023-11-22T11:29:58;99014.38;;;-7.73;56.61
74913;BME280;63878;55.624;37.304;2023-11-22T11:39:59;99007.13;;;-7.03;58.23
74913;BME280;63878;55.624;37.304;2023-11-22T11:49:59;99018.81;;;-8.18;58.05
74913;BME280;63878;55.624;37.304;2023-11-22T12:00:00;99017.13;;;-8.30;58.46
74913;BME280;63878;55.624;37.304;2023-11-22T12:10:00;99020.13;;;-7.33;59.25
74913;BME280;63878;55.624;37.304;2023-11-22T12:20:14;99039.00;;;-7.72;60.09
74913;BME280;63878;55.624;37.304;2023-11-22T12:30:31;99051.63;;;-7.45;57.97
74913;BME280;63878;55.624;37.304;2023-11-22T12:40:32;99050.22;;;-8.22;58.07
74913;BME280;63878;55.624;37.304;2023-11-22T13:00:33;99074.03;;;-8.98;58.61
74913;BME280;63878;55.624;37.304;2023-11-22T13:10:33;99071.47;;;-9.12;57.78
74913;BME280;63878;55.624;37.304;2023-11-22T13:20:34;99074.72;;;-9.56;58.00
74913;BME280;63878;55.624;37.304;2023-11-22T13:30:35;99063.81;;;-9.26;56.83
74913;BME280;63878;55.624;37.304;2023-11-22T13:40:35;99051.97;;;-9.13;56.44
74913;BME280;63878;55.624;37.304;2023-11-22T13:50:39;99054.44;;;-9.48;56.38
74913;BME280;63878;55.624;37.304;2023-11-22T14:00:40;99055.25;;;-9.55;57.60
74913;BME280;63878;55.624;37.304;2023-11-22T14:10:40;99034.06;;;-9.62;56.70
74913;BME280;63878;55.624;37.304;2023-11-22T14:20:41;99045.16;;;-9.20;56.73
74913;BME280;63878;55.624;37.304;2023-11-22T14:30:41;99054.44;;;-9.47;57.23
74913;BME280;63878;55.624;37.304;2023-11-22T14:40:42;99057.72;;;-9.75;58.79
74913;BME280;63878;55.624;37.304;2023-11-22T14:50:43;99065.50;;;-9.23;56.30
74913;BME280;63878;55.624;37.304;2023-11-22T15:00:43;99062.75;;;-9.83;58.52
74913;BME280;63878;55.624;37.304;2023-11-22T15:10:44;99071.44;;;-9.26;58.71
74913;BME280;63878;55.624;37.304;2023-11-22T15:20:44;99063.72;;;-9.61;58.20
74913;BME280;63878;55.624;37.304;2023-11-22T15:30:45;99061.19;;;-9.52;59.99
74913;BME280;63878;55.624;37.304;2023-11-22T15:40:45;99068.78;;;-9.56;61.33
74913;BME280;63878;55.624;37.304;2023-11-22T15:50:45;99068.88;;;-9.24;59.44
74913;BME280;63878;55.624;37.304;2023-11-22T16:00:46;99052.81;;;-9.14;61.98
74913;BME280;63878;55.624;37.304;2023-11-22T16:10:47;99044.34;;;-8.79;60.03
74913;BME280;63878;55.624;37.304;2023-11-22T16:20:47;99040.97;;;-8.95;59.76
74913;BME280;63878;55.624;37.304;2023-11-22T16:30:48;99056.22;;;-8.78;60.37
74913;BME280;63878;55.624;37.304;2023-11-22T16:40:49;99038.44;;;-8.81;60.49
74913;BME280;63878;55.624;37.304;2023-11-22T16:50:50;99050.28;;;-8.76;62.40
74913;BME280;63878;55.624;37.304;2023-11-22T17:00:51;99032.47;;;-8.87;62.99
74913;BME280;63878;55.624;37.304;2023-11-22T17:10:51;99023.97;;;-8.66;62.00
74913;BME280;63878;55.624;37.304;2023-11-22T17:20:52;99015.47;;;-8.52;62.63
74913;BME280;63878;55.624;37.304;2023-11-22T17:30:53;98999.38;;;-8.54;63.36
74913;BME280;63878;55.624;37.304;2023-11-22T17:40:53;99002.75;;;-8.55;62.70
74913;BME280;63878;55.624;37.304;2023-11-22T17:50:54;99001.81;;;-8.16;62.55
74913;BME280;63878;55.624;37.304;2023-11-22T18:00:55;98999.09;;;-7.80;62.57
74913;BME280;63878;55.624;37.304;2023-11-22T18:10:56;98989.41;;;-7.19;61.97
74913;BME280;63878;55.624;37.304;2023-11-22T18:20:57;98978.91;;;-6.84;61.05
74913;BME280;63878;55.624;37.304;2023-11-22T18:30:57;98988.22;;;-6.79;60.03
74913;BME280;63878;55.624;37.304;2023-11-22T18:40:59;98989.06;;;-6.78;61.63
74913;BME280;63878;55.624;37.304;2023-11-22T18:50:59;98981.53;;;-6.95;60.34
74913;BME280;63878;55.624;37.304;2023-11-22T19:01:00;98979.06;;;-7.04;61.43
74913;BME280;63878;55.624;37.304;2023-11-22T19:11:00;98998.53;;;-6.88;62.86
74913;BME280;63878;55.624;37.304;2023-11-22T19:21:01;98998.72;;;-7.14;61.46
74913;BME280;63878;55.624;37.304;2023-11-22T19:31:02;98990.78;;;-8.23;62.73
74913;BME280;63878;55.624;37.304;2023-11-22T19:41:02;98994.13;;;-8.01;62.92
74913;BME280;63878;55.624;37.304;2023-11-22T19:51:02;98987.50;;;-8.80;61.86
74913;BME280;63878;55.624;37.304;2023-11-22T20:01:03;98978.94;;;-8.28;58.96
74913;BME280;63878;55.624;37.304;2023-11-22T20:11:04;98971.25;;;-8.22;58.35
74913;BME280;63878;55.624;37.304;2023-11-22T20:21:04;98966.22;;;-8.50;57.91
74913;BME280;63878;55.624;37.304;2023-11-22T20:31:11;98942.53;;;-8.86;60.71
74913;BME280;63878;55.624;37.304;2023-11-22T20:41:12;98931.34;;;-8.29;59.43
74913;BME280;63878;55.624;37.304;2023-11-22T20:51:13;98932.38;;;-8.86;60.91
74913;BME280;63878;55.624;37.304;2023-11-22T21:01:14;98917.06;;;-8.82;62.11
74913;BME280;63878;55.624;37.304;2023-11-22T21:11:14;98913.66;;;-8.66;61.55
74913;BME280;63878;55.624;37.304;2023-11-22T21:21:15;98897.38;;;-8.21;61.25
74913;BME280;63878;55.624;37.304;2023-11-22T21:31:16;98890.63;;;-8.36;61.05
74913;BME280;63878;55.624;37.304;2023-11-22T21:41:18;98881.41;;;-8.69;62.85
74913;BME280;63878;55.624;37.304;2023-11-22T21:51:27;98880.50;;;-8.42;62.34
74913;BME280;63878;55.624;37.304;2023-11-22T22:01:27;98885.63;;;-8.65;63.35
74913;BME280;63878;55.624;37.304;2023-11-22T22:11:28;98886.53;;;-8.73;63.89
74913;BME280;63878;55.624;37.304;2023-11-22T22:21:28;98878.03;;;-8.71;63.26
74913;BME280;63878;55.624;37.304;2023-11-22T22:31:29;98862.75;;;-8.71;63.48
74913;BME280;63878;55.624;37.304;2023-11-22T22:41:30;98858.41;;;-8.49;61.64
74913;BME280;63878;55.624;37.304;2023-11-22T22:51:30;98867.59;;;-8.08;61.98
74913;BME280;63878;55.624;37.304;2023-11-22T23:01:30;98830.75;;;-7.67;59.59
74913;BME280;63878;55.624;37.304;2023-11-22T23:11:31;98844.56;;;-7.97;60.09
74913;BME280;63878;55.624;37.304;2023-11-22T23:21:32;98828.31;;;-7.84;60.65
74913;BME280;63878;55.624;37.304;2023-11-22T23:31:32;98821.81;;;-7.22;61.01
74913;BME280;63878;55.624;37.304;2023-11-22T23:41:33;98809.88;;;-6.43;60.91
74913;BME280;63878;55.624;37.304;2023-11-22T23:51:34;98797.34;;;-6.01;62.03
